• Join FlightAware (Why Join?)
  • Login
  • US Flag 
02:22PM EDT


 

Airport Tracker/Info


-or-


 

Live Flight TrackerFlight Track Log ✈ N779NC ✈ 09-Jul-2013 ✈ KATL - KJAN

Flight Track Log - Related Links

Times and Time Zones

All times are in EDT time to prevent confusion due to time zone crossing. See the N779NC flight status page for this flight to view local times or setup timezone preferences in your user account.

Time Position Orientation Groundspeed Altitude Reporting Facility
EDT Latitude Longitude Course Direction KTS MPH feet Rate Location/Type
12:23PM 33.6667 -84.5000 284° West 240 276 3,000  Level Atlanta TRACON
12:24PM 33.6833 -84.5833 284° West 261 300 5,300 2,340 Climbing Atlanta TRACON
12:25PM 33.6833 -84.6667 270° West 271 312 7,700 1,740 Climbing Atlanta TRACON
12:27PM 33.5889 -84.8842 243° Southwest 294 338 11,400 1,560 Climbing Atlanta Center
12:28PM 33.5422 -84.9883 242° Southwest 331 381 13,000 1,680 Climbing Atlanta Center
12:29PM 33.5142 -85.1053 254° West 360 414 14,800 1,800 Climbing Atlanta Center
12:30PM 33.5006 -85.2247 262° West 365 420 16,600 1,560 Climbing Atlanta Center
12:31PM 33.4889 -85.3464 263° West 370 426 18,000 1,200 Climbing Atlanta Center
12:32PM 33.4792 -85.4733 265° West 384 442 19,100 1,200 Climbing Atlanta Center
12:33PM 33.4586 -85.6050 259° West 396 456 20,500 1,320 Climbing Atlanta Center
12:34PM 33.4297 -85.7339 255° West 396 456 21,800 1,140 Climbing Atlanta Center
12:35PM 33.3925 -85.8600 251° West 396 456 22,800 900 Climbing Atlanta Center
12:36PM 33.3467 -85.9908 247° West 407 468 23,700 900 Climbing Atlanta Center
12:37PM 33.2925 -86.1164 243° Southwest 419 482 24,600 900 Climbing Atlanta Center
12:38PM 33.2381 -86.2517 244° Southwest 431 496 25,600 900 Climbing Atlanta Center
12:39PM 33.1853 -86.3919 246° West 449 517 26,500 900 Climbing Atlanta Center
12:40PM 33.1389 -86.5269 248° West 450 518 27,400 780 Climbing Atlanta Center
12:41PM 33.0942 -86.6697 250° West 455 524 28,100 840 Climbing Atlanta Center
12:42PM 33.0492 -86.8119 249° West 467 537 29,100 900 Climbing Atlanta Center
12:43PM 33.0022 -86.9542 249° West 467 537 30,000 420 Climbing Atlanta Center
12:44PM 32.9547 -87.0986 249° West 459 528 30,000  Level Atlanta Center
12:46PM 32.8594 -87.3772 248° West 475 547 30,000  Level Memphis Center
12:47PM 32.8150 -87.5269 251° West 475 547 30,000  Level Memphis Center
12:48PM 32.7703 -87.6767 250° West 475 547 30,000  Level Memphis Center
12:49PM 32.7236 -87.8436 252° West 482 555 30,000  Level Memphis Center
12:50PM 32.6844 -87.9656 249° West 474 545 30,000  Level Memphis Center
12:51PM 32.6347 -88.1075 247° West 474 545 30,000  Level Memphis Center
12:52PM 32.5789 -88.2494 245° Southwest 474 545 30,000  Level Memphis Center
12:53PM 32.5228 -88.3911 245° Southwest 474 545 30,000 -180 Level Memphis Center
12:54PM 32.4686 -88.5328 246° West 474 545 29,700 -600 Descending Memphis Center
12:55PM 32.4161 -88.6742 246° West 474 545 28,800 -1,800 Descending Memphis Center
12:56PM 32.3722 -88.8200 250° West 474 545 26,200 -3,240 Descending Memphis Center
12:57PM 32.3636 -88.9703 266° West 460 529 22,400 -3,540 Descending Memphis Center
12:58PM 32.3881 -89.1150 281° West 453 521 19,200 -2,820 Descending Memphis Center
12:59PM 32.4039 -89.2525 278° West 446 513 16,800 -2,700 Descending Memphis Center
01:00PM 32.4114 -89.3828 274° West 423 487 13,800 -2,700 Descending Memphis Center
01:01PM 32.4122 -89.5083 270° West 402 463 11,400 -1,680 Descending Memphis Center
01:02PM 32.4025 -89.6217 264° West 371 427 10,500 -1,020 Descending Memphis Center
01:03PM 32.3947 -89.7128 264° West 331 381 9,400 -1,440 Descending Memphis Center
01:04PM 32.3722 -89.8014 253° West 293 337 7,700 -1,740 Descending Memphis Center
01:05PM 32.3475 -89.8853 251° West 280 322 6,000 -2,100 Descending Memphis Center
01:06PM 32.3269 -89.9664 253° West 275 316 3,500 -2,160 Descending Memphis Center
01:07PM 32.2728 -90.0183 219° Southwest 235 270 1,700 -1,380 Descending Memphis Center
01:08PM 32.2708 -90.0600 267° West 168 193 800 -600 Descending Memphis Center
01:09PM 32.2750 -90.0944 278° West 137 158 500 -300 Descending Memphis Center